Pagina principale
METAR-TAF:

METAR-TAF

Aeroporti :

Aeroporto di Decimomannu

Decimomannu, Italia

latitudine: 39-21N, longitudine: 008-58E, altezza: 29 m

Osservazione

Il bollettino è stato emesso 1 ora e 1 minuti fa, alle 11:55 UTC
Vento 2 kt da sud
Temperature 18°C
Umidità 77%
Pressione 1022 hPa
Visibilità 10 km o più
Poco nuvoloso ad un'altezza di 2000 ft

METAR: LIED 061155Z 19002KT 9999 FEW020 18/14 Q1022 RMK SCT VIS MIN 9999 WIND THR35 13002KT WIND THR17 /////KT BLU

Ora: 13:56 (12:56 UTC)

Previsione

Il bollettino è stato emesso 1 ora e 56 minuti fa, alle 11:00 UTC
Previsione valida dal 06 alle 12 UTC al 06 alle 21 UTC
Vento 8 kt da sud/sud-est
Visibilità 10 km o più
Poco nuvoloso ad un'altezza di 2000 ft

TAF: LIED 061100Z 0612/0621 16008KT 9999 FEW020

Osservazioni e previsioni meteorologiche di più di 4000 aeroporti (messaggi METAR e TAF).

Le stazioni disponibili sono rappresentate dai dischi gialli e rossi sulla carta.

Puntare il mouse per vedere il nome della stazione.

Clicca sopra per visualizzare le osservazioni e previsioni meteorologiche.

Per cambiare la mappa : fare clic sui pulsanti verdi con una croce nera per ingrandire, il pulsante verde con un trattino per diminuire, o sulla freccia verde per le mappe adiacenti.


METAR-TAF: